This is the latest recevied weather packets stored in our database for station/object DC0PP-10. If no packets are shown the sender has not sent any weather packets the latest 10 day(s).
| Time | Temp. | Humidity | Pressure | Rain* | Wind** | Luminosity | Snow |
|---|---|---|---|---|---|---|---|
| 1777368331 | 23.89° C | 40% | 1017.2 hPa | - | - | - | - |
| 1777367431 | 22.78° C | 40% | 1017.4 hPa | - | - | - | - |
| 1777366531 | 22.22° C | 41% | 1017.4 hPa | - | - | - | - |
| 1777365631 | 22.78° C | 41% | 1017.2 hPa | - | - | - | - |
| 1777364731 | 22.22° C | 42% | 1017.3 hPa | - | - | - | - |
| 1777363830 | 21.67° C | 43% | 1017.3 hPa | - | - | - | - |
| 1777362930 | 21.11° C | 45% | 1017.4 hPa | - | - | - | - |
| 1777362030 | 20.56° C | 45% | 1017.5 hPa | - | - | - | - |
| 1777361129 | 20° C | 45% | 1017.5 hPa | - | - | - | - |
| 1777360229 | 20° C | 47% | 1017.4 hPa | - | - | - | - |
| 1777359329 | 20° C | 47% | 1017.4 hPa | - | - | - | - |
| 1777358428 | 17.78° C | 46% | 1017.4 hPa | - | - | - | - |
| 1777357532 | 16.67° C | 53% | 1017.5 hPa | - | - | - | - |
| 1777356632 | 15° C | 56% | 1017.6 hPa | - | - | - | - |
| 1777355732 | 13.33° C | 60% | 1017.7 hPa | - | - | - | - |
| 1777354832 | 12.22° C | 65% | 1017.7 hPa | - | - | - | - |
| 1777353932 | 12.78° C | 63% | 1017.7 hPa | - | - | - | - |
| 1777353031 | 11.11° C | 68% | 1017.9 hPa | - | - | - | - |
| 1777352131 | 10.56° C | 67% | 1017.8 hPa | - | - | - | - |
| 1777351231 | 10.56° C | 70% | 1017.8 hPa | - | - | - | - |
| 1777350331 | 10.56° C | 70% | 1017.6 hPa | - | - | - | - |
| 1777349431 | 11.11° C | 70% | 1017.6 hPa | - | - | - | - |
| 1777348531 | 10.56° C | 71% | 1017.6 hPa | - | - | - | - |
| 1777347631 | 10.56° C | 71% | 1017.7 hPa | - | - | - | - |
| 1777346730 | 11.67° C | 66% | 1017.7 hPa | - | - | - | - |
* Rain since midnight (hover to see other rain measurements)
** Current wind speed in m/s (hover to see current wind gust speed)